Time;durP1;ratioP1;P1;durP2;ratioP2;P2;SDS_P1;SDS_P2;PMS_P1;PMS_P2;Temp;Humidity;BMP_temperature;BMP_pressure;BME280_temperature;BME280_humidity;BME280_pressure;Samples;Min_cycle;Max_cycle;Signal;HPM_P1;HPM_P2
2021/05/12 00:01:04;;;;;;;20.63;9.90;;;;;;;18.83;53.58;100673.41;3376396;29;20128;-68
2021/05/12 00:02:45;;;;;;;13.18;9.02;;;;;;;18.83;53.29;100676.13;3376378;29;20056;-68
2021/05/12 00:04:26;;;;;;;13.97;8.97;;;;;;;18.80;53.42;100682.78;3376382;29;20059;-68
2021/05/12 00:06:07;;;;;;;14.63;10.27;;;;;;;18.81;53.43;100686.31;3376774;29;20045;-68
2021/05/12 00:07:48;;;;;;;14.80;9.05;;;;;;;18.80;53.31;100684.66;3376376;29;20044;-68
2021/05/12 00:09:28;;;;;;;14.07;8.80;;;;;;;18.79;53.37;100683.00;3380702;29;20040;-68
2021/05/12 00:11:09;;;;;;;14.60;9.13;;;;;;;18.79;53.36;100689.22;3376896;29;20799;-67
2021/05/12 00:12:51;;;;;;;12.27;9.68;;;;;;;18.78;53.73;100687.59;3377605;29;20416;-68
2021/05/12 00:14:32;;;;;;;14.60;9.73;;;;;;;18.76;53.70;100683.44;3389452;29;20096;-68
2021/05/12 00:16:12;;;;;;;12.77;9.63;;;;;;;18.72;53.78;100686.56;3389228;29;20048;-67
2021/05/12 00:17:54;;;;;;;11.73;8.90;;;;;;;18.70;53.78;100683.28;3389014;29;20082;-69
2021/05/12 00:19:37;;;;;;;13.32;9.88;;;;;;;18.71;53.97;100686.78;3400440;29;20523;-68
2021/05/12 00:21:53;;;;;;;15.52;9.27;;;;;;;18.70;53.63;100696.78;3391371;29;20051;-67
2021/05/12 00:23:28;;;;;;;11.93;9.18;;;;;;;18.70;53.93;100694.06;3386295;29;20068;-68
2021/05/12 00:25:10;;;;;;;12.27;9.00;;;;;;;18.70;54.02;100691.38;3384518;29;20052;-68
2021/05/12 00:26:51;;;;;;;15.23;9.85;;;;;;;18.70;53.86;100691.38;3375952;29;20397;-68
2021/05/12 00:28:32;;;;;;;12.23;9.18;;;;;;;18.71;53.86;100684.09;3382594;29;20086;-68
2021/05/12 00:30:19;;;;;;;12.73;9.85;;;;;;;18.72;54.17;100691.16;3389203;29;20507;-69
2021/05/12 00:31:59;;;;;;;15.40;9.27;;;;;;;18.69;54.13;100694.28;3388948;29;20103;-68
2021/05/12 00:33:40;;;;;;;11.70;9.40;;;;;;;18.68;54.11;100689.94;3389147;29;20127;-68
2021/05/12 00:35:22;;;;;;;15.10;9.43;;;;;;;18.65;54.32;100687.69;3389199;29;20084;-68
2021/05/12 00:37:02;;;;;;;;;;;;;;;18.71;53.55;100692.19;3389947;29;20044;-68
2021/05/12 00:38:43;;;;;;;20.80;9.43;;;;;;;18.65;54.08;100693.91;3380640;29;19923;-68
2021/05/12 00:40:24;;;;;;;11.63;9.20;;;;;;;18.62;54.50;100697.06;3375856;29;20504;-68
2021/05/12 00:42:05;;;;;;;13.88;9.23;;;;;;;18.57;54.79;100693.38;3375812;29;20048;-68
2021/05/12 00:43:46;;;;;;;13.53;9.50;;;;;;;18.53;54.76;100695.69;3376121;29;20047;-68
2021/05/12 00:45:27;;;;;;;15.55;9.13;;;;;;;18.52;54.68;100688.66;3374883;29;20289;-68
2021/05/12 00:47:07;;;;;;;12.45;9.10;;;;;;;18.51;54.78;100693.22;3375603;29;20041;-68
2021/05/12 00:48:48;;;;;;;10.82;8.07;;;;;;;18.54;54.77;100691.97;3383558;29;20410;-68
2021/05/12 00:50:29;;;;;;;10.73;7.78;;;;;;;18.56;54.69;100691.72;3388997;29;20099;-68
2021/05/12 00:52:10;;;;;;;12.57;8.17;;;;;;;18.57;54.43;100691.50;3389088;29;20578;-68
2021/05/12 00:53:51;;;;;;;13.05;8.80;;;;;;;18.56;54.68;100689.88;3387715;29;20444;-68
2021/05/12 00:55:32;;;;;;;12.93;8.00;;;;;;;18.54;54.72;100691.97;3381102;29;20075;-68
2021/05/12 00:57:13;;;;;;;12.30;8.43;;;;;;;18.52;54.75;100683.25;3375936;29;20044;-68
2021/05/12 00:58:53;;;;;;;13.68;7.75;;;;;;;18.50;54.85;100680.75;3375757;29;20045;-67
2021/05/12 01:00:34;;;;;;;10.85;8.27;;;;;;;18.50;55.16;100691.56;3375993;29;20456;-69
2021/05/12 01:02:15;;;;;;;11.38;8.15;;;;;;;18.47;55.20;100685.78;3375789;29;20087;-69
2021/05/12 01:03:56;;;;;;;14.82;8.77;;;;;;;18.48;55.24;100687.44;3375636;29;20519;-69
2021/05/12 01:05:36;;;;;;;9.23;7.78;;;;;;;18.44;55.24;100676.25;3383006;29;20035;-68
2021/05/12 01:07:17;;;;;;;10.25;8.55;;;;;;;18.44;55.06;100675.44;3388952;29;20072;-67
2021/05/12 01:08:58;;;;;;;12.15;9.00;;;;;;;18.43;55.45;100674.63;3388838;29;20043;-68
2021/05/12 01:10:39;;;;;;;16.40;8.95;;;;;;;18.42;55.18;100672.13;3388565;29;20036;-67
2021/05/12 01:12:20;;;;;;;11.45;8.57;;;;;;;18.43;55.25;100681.88;3388356;29;20526;-68
2021/05/12 01:14:01;;;;;;;10.87;8.53;;;;;;;18.41;55.46;100684.00;3388710;29;20127;-69
2021/05/12 01:15:43;;;;;;;13.30;9.07;;;;;;;18.35;55.66;100682.97;3387019;29;20047;-69
2021/05/12 01:17:24;;;;;;;11.32;8.75;;;;;;;18.30;55.89;100683.66;3388174;29;20040;-67
2021/05/12 01:19:04;;;;;;;12.55;7.90;;;;;;;18.29;55.96;100678.47;3388516;29;20044;-69
2021/05/12 01:20:51;;;;;;;11.93;8.90;;;;;;;18.26;56.10;100685.13;3388558;29;20509;-68
2021/05/12 01:22:32;;;;;;;11.77;8.18;;;;;;;18.23;55.87;100690.97;3388643;29;20051;-68
2021/05/12 01:24:13;;;;;;;12.52;8.43;;;;;;;18.22;55.78;100689.31;3388556;29;20043;-69
2021/05/12 01:25:55;;;;;;;13.95;8.70;;;;;;;18.22;55.75;100686.63;3378094;29;20396;-68
2021/05/12 01:27:36;;;;;;;12.15;8.77;;;;;;;18.19;56.17;100695.16;3375653;29;20052;-69
2021/05/12 01:29:16;;;;;;;15.35;9.70;;;;;;;18.15;56.26;100693.97;3375875;29;20049;-68
2021/05/12 01:31:28;;;;;;;12.63;10.57;;;;;;;18.15;56.23;100691.25;3375407;29;20100;-69
2021/05/12 01:33:09;;;;;;;12.25;8.38;;;;;;;18.06;56.17;100696.09;3375522;29;20073;-68
2021/05/12 01:34:49;;;;;;;14.60;8.45;;;;;;;18.05;56.21;100691.75;3377106;29;20832;-68
2021/05/12 01:36:31;;;;;;;12.48;9.27;;;;;;;18.01;56.32;100703.19;3391201;29;20090;-68
2021/05/12 01:38:12;;;;;;;15.07;10.70;;;;;;;17.98;56.62;100700.94;3391384;29;20048;-68
2021/05/12 01:39:52;;;;;;;13.65;9.32;;;;;;;17.99;56.43;100705.28;3388730;29;20047;-68
2021/05/12 01:41:33;;;;;;;13.48;9.27;;;;;;;18.00;56.30;100701.53;3364187;29;20041;-68
2021/05/12 01:43:14;;;;;;;13.40;8.60;;;;;;;18.01;56.54;100704.00;3364243;29;20500;-68
2021/05/12 01:45:03;;;;;;;11.55;9.07;;;;;;;18.03;56.45;100699.22;3376458;29;20104;-68
2021/05/12 01:46:48;;;;;;;11.13;8.50;;;;;;;18.01;56.48;100705.88;3390995;29;20515;-68
2021/05/12 01:48:29;;;;;;;14.02;9.48;;;;;;;17.95;56.56;100709.47;3391130;29;20040;-69
2021/05/12 01:50:11;;;;;;;12.02;9.10;;;;;;;17.91;57.04;100708.22;3377479;29;20048;-68
2021/05/12 01:51:52;;;;;;;;;;;;;;;17.97;56.35;100702.00;3388527;29;20098;-67
2021/05/12 01:53:33;;;;;;;12.13;8.77;;;;;;;17.94;56.37;100707.78;3390954;29;19923;-68
2021/05/12 01:55:15;;;;;;;15.05;8.73;;;;;;;17.93;56.83;100706.97;3371897;29;20097;-68
2021/05/12 01:56:55;;;;;;;;;;;;;;;17.98;56.21;100707.16;3375618;29;20047;-68
2021/05/12 01:58:38;;;;;;;10.60;8.70;;;;;;;17.85;56.79;100704.53;3378162;29;19929;-68
2021/05/12 02:00:29;;;;;;;15.75;8.70;;;;;;;17.82;56.79;100710.38;3377700;29;20055;-68
2021/05/12 02:02:10;;;;;;;13.52;8.40;;;;;;;17.77;56.76;100710.16;3363653;29;20537;-69
2021/05/12 02:03:51;;;;;;;15.98;8.73;;;;;;;17.76;56.89;100703.94;3374814;29;20040;-68
2021/05/12 02:05:32;;;;;;;22.13;9.52;;;;;;;17.76;57.05;100706.66;3384108;29;20051;-68
2021/05/12 02:07:13;;;;;;;10.57;8.82;;;;;;;17.76;57.15;100712.03;3390222;29;20048;-68
2021/05/12 02:08:54;;;;;;;20.48;8.77;;;;;;;17.78;56.99;100704.53;3390591;29;20043;-68
2021/05/12 02:10:35;;;;;;;15.60;9.68;;;;;;;17.78;57.33;100712.63;3390428;29;20087;-68
2021/05/12 02:12:16;;;;;;;15.10;8.32;;;;;;;17.79;57.14;100714.34;3390391;29;20048;-68
2021/05/12 02:13:57;;;;;;;15.30;10.23;;;;;;;17.76;57.16;100717.44;3390555;29;20146;-68
2021/05/12 02:15:38;;;;;;;16.63;9.15;;;;;;;17.76;57.02;100712.03;3388710;29;20407;-68
2021/05/12 02:17:19;;;;;;;15.05;8.75;;;;;;;17.76;57.01;100708.50;3390189;29;20127;-68
2021/05/12 02:19:00;;;;;;;15.77;9.98;;;;;;;17.75;57.24;100707.69;3390292;29;20046;-68
2021/05/12 02:20:41;;;;;;;15.45;8.77;;;;;;;17.75;57.15;100715.75;3376686;29;20076;-69
2021/05/12 02:22:22;;;;;;;14.75;8.38;;;;;;;17.75;57.04;100715.75;3387660;29;20052;-67
2021/05/12 02:24:03;;;;;;;15.73;9.18;;;;;;;17.76;56.92;100711.19;3376623;29;20044;-68
2021/05/12 02:25:44;;;;;;;21.40;9.70;;;;;;;17.77;56.92;100715.56;3378998;29;20044;-69
2021/05/12 02:27:25;;;;;;;15.05;7.80;;;;;;;17.77;56.98;100704.78;3377480;29;20419;-68
2021/05/12 02:29:05;;;;;;;10.93;7.93;;;;;;;17.78;56.96;100714.50;3377539;29;20131;-68
2021/05/12 02:30:46;;;;;;;14.05;8.00;;;;;;;17.78;56.83;100715.31;3377691;29;20052;-68
2021/05/12 02:32:30;;;;;;;13.70;8.77;;;;;;;17.78;56.94;100715.31;3377142;29;20598;-69
2021/05/12 02:34:10;;;;;;;10.75;7.13;;;;;;;17.78;57.06;100715.31;3363597;29;20049;-67
2021/05/12 02:35:51;;;;;;;10.68;6.68;;;;;;;17.80;56.65;100705.19;3383576;29;20523;-68
2021/05/12 02:37:32;;;;;;;8.68;7.15;;;;;;;17.81;56.83;100714.09;3390403;29;20054;-68
2021/05/12 02:39:13;;;;;;;11.30;6.75;;;;;;;17.82;56.84;100715.78;3378374;29;20467;-68
2021/05/12 02:40:53;;;;;;;9.93;6.55;;;;;;;17.83;56.76;100712.84;3373645;29;20055;-69
2021/05/12 02:42:34;;;;;;;10.15;6.78;;;;;;;17.85;56.54;100712.63;3387766;29;20111;-68
2021/05/12 02:44:15;;;;;;;8.75;6.93;;;;;;;17.86;56.38;100707.03;3390387;29;20631;-68
2021/05/12 02:45:55;;;;;;;12.38;6.60;;;;;;;17.86;56.52;100707.03;3389462;29;20044;-68
2021/05/12 02:47:37;;;;;;;9.90;6.20;;;;;;;17.87;56.38;100700.59;3389646;29;20040;-68
2021/05/12 02:49:17;;;;;;;12.35;7.95;;;;;;;17.90;56.05;100696.63;3390334;29;20050;-68
2021/05/12 02:50:58;;;;;;;9.45;6.93;;;;;;;17.91;56.10;100703.66;3390512;29;20486;-68
2021/05/12 02:52:39;;;;;;;9.52;6.65;;;;;;;17.94;56.12;100703.25;3390397;29;20040;-69
2021/05/12 02:54:20;;;;;;;9.67;6.63;;;;;;;17.97;56.15;100702.00;3390063;29;20051;-68
2021/05/12 02:56:01;;;;;;;9.70;6.13;;;;;;;18.00;55.87;100704.25;3379094;29;20504;-69
2021/05/12 02:57:42;;;;;;;10.60;6.18;;;;;;;18.01;55.89;100705.88;3377382;29;20050;-69
2021/05/12 02:59:24;;;;;;;6.47;5.75;;;;;;;18.01;55.88;100703.19;3377046;29;20052;-69
2021/05/12 03:01:05;;;;;;;10.40;5.80;;;;;;;18.02;55.84;100705.69;3377152;29;20040;-69
2021/05/12 03:02:45;;;;;;;7.95;5.00;;;;;;;18.03;55.95;100711.91;3376953;29;20512;-69
2021/05/12 03:04:26;;;;;;;6.82;5.50;;;;;;;18.02;55.81;100707.56;3377128;29;20043;-68
2021/05/12 03:06:07;;;;;;;9.98;4.95;;;;;;;18.02;55.88;100715.66;3387886;29;20083;-68
2021/05/12 03:07:48;;;;;;;11.13;5.90;;;;;;;18.01;56.03;100713.97;3390073;29;20055;-68
2021/05/12 03:09:29;;;;;;;11.85;6.07;;;;;;;18.03;55.82;100711.91;3390342;29;20104;-68
2021/05/12 03:11:10;;;;;;;7.97;5.27;;;;;;;18.02;55.59;100715.66;3377742;29;20079;-69
2021/05/12 03:12:51;;;;;;;6.53;4.85;;;;;;;18.02;55.71;100712.94;3376854;29;20305;-69
2021/05/12 03:14:32;;;;;;;9.00;5.70;;;;;;;18.05;55.81;100709.81;3388949;29;20182;-68
2021/05/12 03:16:13;;;;;;;9.23;5.47;;;;;;;18.10;55.80;100715.38;3387044;29;20119;-68
2021/05/12 03:17:55;;;;;;;8.07;5.72;;;;;;;18.13;55.67;100722.22;3388890;29;20047;-69
2021/05/12 03:19:36;;;;;;;7.82;6.35;;;;;;;18.14;55.73;100724.66;3383652;29;20044;-70
2021/05/12 03:21:17;;;;;;;10.27;5.40;;;;;;;18.11;55.61;100730.50;3384019;29;20082;-69
2021/05/12 03:22:58;;;;;;;9.98;6.55;;;;;;;18.07;55.68;100729.28;3383648;29;20055;-69
2021/05/12 03:24:38;;;;;;;7.47;5.20;;;;;;;18.04;55.75;100725.19;3385874;29;20044;-69
2021/05/12 03:26:19;;;;;;;11.00;5.88;;;;;;;18.04;55.85;100729.72;3380407;29;20321;-69
2021/05/12 03:28:00;;;;;;;9.00;5.93;;;;;;;18.03;55.86;100730.78;3377103;29;20045;-69
2021/05/12 03:29:41;;;;;;;8.00;5.15;;;;;;;18.03;55.83;100730.78;3377079;29;20467;-69
2021/05/12 03:31:22;;;;;;;11.88;5.47;;;;;;;18.03;55.65;100722.69;3383895;29;20042;-70
2021/05/12 03:33:04;;;;;;;10.43;5.43;;;;;;;18.01;55.90;100716.69;3383754;29;20054;-68
2021/05/12 03:34:44;;;;;;;;;;;;;;;18.10;55.34;100718.06;3382234;29;20541;-69
2021/05/12 03:36:25;;;;;;;8.55;5.38;;;;;;;18.02;55.72;100713.78;3382308;29;19923;-70
2021/05/12 03:38:07;;;;;;;5.80;5.00;;;;;;;18.02;55.75;100715.66;3380814;29;20044;-71
2021/05/12 03:39:49;;;;;;;9.95;5.05;;;;;;;18.02;55.56;100721.03;3383062;29;20059;-69
2021/05/12 03:41:29;;;;;;;8.07;4.75;;;;;;;18.03;55.59;100719.97;3383675;29;20045;-70
2021/05/12 03:43:10;;;;;;;7.07;4.88;;;;;;;18.06;55.49;100719.53;3383651;29;20103;-70
2021/05/12 03:44:51;;;;;;;12.27;5.70;;;;;;;18.04;55.53;100724.31;3382641;29;20040;-69
2021/05/12 03:46:32;;;;;;;17.75;5.50;;;;;;;18.03;55.50;100731.59;3382052;29;20051;-70
2021/05/12 03:48:12;;;;;;;9.38;5.45;;;;;;;18.01;55.38;100725.59;3380772;29;20135;-69
2021/05/12 03:49:53;;;;;;;8.98;5.43;;;;;;;18.01;55.55;100727.47;3382415;29;20048;-69
2021/05/12 03:51:34;;;;;;;11.30;6.20;;;;;;;18.02;55.43;100731.84;3383816;29;20148;-71
2021/05/12 03:53:14;;;;;;;7.43;5.57;;;;;;;18.03;55.31;100717.28;3383628;29;20048;-69
2021/05/12 03:54:55;;;;;;;8.15;5.53;;;;;;;18.05;55.37;100731.38;3384145;29;20048;-69
2021/05/12 03:56:36;;;;;;;6.88;4.93;;;;;;;18.05;55.20;100726.81;3379396;29;20032;-69
2021/05/12 03:58:17;;;;;;;9.73;5.18;;;;;;;18.05;55.19;100729.50;3382939;29;20052;-70
2021/05/12 03:59:58;;;;;;;8.00;5.18;;;;;;;18.07;55.30;100737.38;3362440;29;20049;-69
2021/05/12 04:01:38;;;;;;;9.93;5.78;;;;;;;18.09;55.14;100730.72;3373796;29;20044;-72
2021/05/12 04:03:19;;;;;;;9.85;5.45;;;;;;;18.11;55.42;100725.09;3377673;29;20040;-70
2021/05/12 04:05:00;;;;;;;7.32;5.60;;;;;;;18.15;55.56;100728.19;3371888;29;20043;-70
2021/05/12 04:06:43;;;;;;;13.02;5.25;;;;;;;18.17;54.98;100740.41;3379450;29;20036;-69
2021/05/12 04:08:25;;;;;;;10.50;5.95;;;;;;;18.19;55.12;100727.53;3380888;29;20040;-71
2021/05/12 04:10:07;;;;;;;11.10;6.63;;;;;;;18.20;55.29;100729.22;3383666;29;20036;-69
2021/05/12 04:11:49;;;;;;;12.20;6.38;;;;;;;18.21;55.11;100730.84;3383040;29;20044;-70
2021/05/12 04:13:29;;;;;;;12.07;7.03;;;;;;;18.22;55.31;100719.00;3382023;29;20052;-71
2021/05/12 04:15:10;;;;;;;15.75;7.38;;;;;;;18.23;55.27;100717.16;3377897;29;20507;-69
2021/05/12 04:16:52;;;;;;;12.18;7.07;;;;;;;18.23;55.00;100715.28;3379222;29;20128;-69
2021/05/12 04:18:33;;;;;;;19.88;7.38;;;;;;;18.26;55.21;100727.50;3383436;29;20412;-69
2021/05/12 04:20:16;;;;;;;13.30;7.43;;;;;;;18.25;55.24;100726.69;3378340;29;20100;-70
2021/05/12 04:21:57;;;;;;;14.68;7.07;;;;;;;18.26;55.48;100717.53;3381623;29;20048;-69
2021/05/12 04:23:37;;;;;;;9.05;6.30;;;;;;;18.26;55.47;100714.81;3378560;29;20072;-69
2021/05/12 04:25:21;;;;;;;8.50;6.07;;;;;;;18.25;55.34;100715.03;3382309;29;20048;-70
2021/05/12 04:27:02;;;;;;;12.10;8.50;;;;;;;18.25;55.38;100715.88;3377375;29;20087;-69
2021/05/12 04:28:43;;;;;;;14.90;10.57;;;;;;;18.25;55.23;100718.59;3381338;29;20099;-69
2021/05/12 04:30:24;;;;;;;14.35;9.50;;;;;;;18.24;55.16;100719.59;3380491;29;20131;-69
2021/05/12 04:32:06;;;;;;;11.45;6.72;;;;;;;18.23;55.16;100726.06;3387995;29;20048;-69
2021/05/12 04:33:46;;;;;;;13.57;6.47;;;;;;;18.20;55.03;100720.25;3381439;29;20041;-68
2021/05/12 04:35:29;;;;;;;9.80;6.43;;;;;;;18.20;54.94;100729.22;3385987;29;20044;-69
2021/05/12 04:37:10;;;;;;;10.05;5.55;;;;;;;18.19;55.07;100729.41;3378330;29;20044;-69
2021/05/12 04:38:51;;;;;;;11.75;5.38;;;;;;;18.18;54.95;100725.06;3382546;29;20051;-70
2021/05/12 04:40:32;;;;;;;11.73;5.93;;;;;;;18.17;54.68;100734.19;3380892;29;20131;-69
2021/05/12 04:42:12;;;;;;;7.80;4.90;;;;;;;18.17;54.44;100720.72;3382170;29;20559;-69
2021/05/12 04:43:54;;;;;;;14.00;5.50;;;;;;;18.16;54.44;100711.78;3381833;29;20129;-68
2021/05/12 04:45:35;;;;;;;7.65;4.80;;;;;;;18.14;54.63;100713.06;3376825;29;20041;-70
2021/05/12 04:47:16;;;;;;;15.77;5.53;;;;;;;18.14;54.62;100711.19;3380224;29;20044;-69
2021/05/12 04:48:56;;;;;;;12.68;5.78;;;;;;;18.16;54.46;100716.38;3381201;29;20564;-70
2021/05/12 04:50:37;;;;;;;9.45;4.88;;;;;;;18.17;54.35;100724.22;3384945;29;20261;-69
2021/05/12 04:52:18;;;;;;;13.18;4.93;;;;;;;18.17;54.34;100721.53;3380181;29;20084;-69
2021/05/12 04:53:58;;;;;;;8.13;5.30;;;;;;;18.20;54.42;100728.34;3371580;29;20143;-69
2021/05/12 04:55:39;;;;;;;9.85;5.45;;;;;;;18.21;54.22;100719.22;3380871;29;20490;-69
2021/05/12 04:57:20;;;;;;;6.05;4.32;;;;;;;18.22;54.42;100721.69;3386708;29;20416;-68
2021/05/12 04:59:01;;;;;;;8.60;5.05;;;;;;;18.23;54.57;100725.25;3381069;29;20494;-69
2021/05/12 05:00:42;;;;;;;11.32;7.55;;;;;;;18.24;54.17;100730.41;3384410;29;20177;-69
2021/05/12 05:02:23;;;;;;;11.02;6.35;;;;;;;18.25;54.30;100721.28;3384457;29;20073;-69
2021/05/12 05:04:04;;;;;;;12.27;6.35;;;;;;;18.27;54.58;100719.16;3383469;29;20511;-69
2021/05/12 05:05:45;;;;;;;11.18;5.60;;;;;;;18.29;54.37;100714.38;3381224;29;20121;-70
2021/05/12 05:07:25;;;;;;;10.57;5.88;;;;;;;18.29;54.33;100716.25;3380592;29;20563;-69
2021/05/12 05:09:07;;;;;;;10.73;5.75;;;;;;;18.28;54.43;100720.84;3387804;29;20051;-69
2021/05/12 05:10:49;;;;;;;14.15;6.05;;;;;;;18.30;54.36;100713.34;3377937;29;20048;-69
2021/05/12 05:12:29;;;;;;;11.90;5.72;;;;;;;18.32;54.40;100713.09;3384907;29;20534;-69
2021/05/12 05:14:12;;;;;;;14.02;6.95;;;;;;;18.35;54.67;100719.94;3365342;29;20045;-70
2021/05/12 05:15:52;;;;;;;12.75;6.03;;;;;;;18.37;54.52;100721.38;3379496;29;20048;-71
2021/05/12 05:17:33;;;;;;;16.13;6.10;;;;;;;18.40;54.53;100720.09;3383152;29;20066;-69
2021/05/12 05:19:14;;;;;;;10.98;5.30;;;;;;;18.44;54.42;100724.03;3377396;29;20059;-69
2021/05/12 05:20:55;;;;;;;9.43;6.53;;;;;;;18.45;54.65;100720.28;3367506;29;20131;-70
2021/05/12 05:22:36;;;;;;;10.30;6.27;;;;;;;18.49;54.83;100718.78;3380213;29;20131;-69
2021/05/12 05:24:17;;;;;;;15.05;7.68;;;;;;;18.50;54.85;100710.47;3377244;29;20666;-70
2021/05/12 05:25:57;;;;;;;9.73;7.30;;;;;;;18.50;54.48;100717.72;3378033;29;20088;-71
2021/05/12 05:27:38;;;;;;;9.40;6.38;;;;;;;18.52;54.68;100710.25;3379308;29;20044;-69
2021/05/12 05:29:19;;;;;;;11.65;6.30;;;;;;;18.52;54.65;100715.66;3378497;29;20048;-70
2021/05/12 05:30:59;;;;;;;10.18;6.30;;;;;;;18.52;54.71;100715.66;3382850;29;20051;-69
2021/05/12 05:33:03;;;;;;;7.05;5.60;;;;;;;18.53;54.70;100723.53;3357150;29;20058;-70
2021/05/12 05:35:05;;;;;;;8.20;5.85;;;;;;;18.57;54.48;100715.00;3380889;29;20044;-69
2021/05/12 05:37:05;;;;;;;13.10;6.07;;;;;;;18.59;54.49;100716.41;3383198;29;20055;-71
2021/05/12 05:39:07;;;;;;;10.43;5.30;;;;;;;18.62;54.38;100715.97;3383363;29;20071;-70
2021/05/12 05:41:07;;;;;;;14.23;6.70;;;;;;;18.64;54.35;100713.88;3379735;29;20076;-70
2021/05/12 05:43:08;;;;;;;14.27;6.57;;;;;;;18.66;54.24;100702.84;3387236;29;20099;-70
2021/05/12 05:45:08;;;;;;;9.32;5.97;;;;;;;18.66;54.49;100703.66;3381244;29;20060;-71
2021/05/12 05:47:08;;;;;;;15.65;6.82;;;;;;;18.69;54.32;100700.53;3380241;29;20432;-69
2021/05/12 05:49:07;;;;;;;11.63;6.32;;;;;;;18.71;53.86;100705.69;3380142;29;20100;-69
2021/05/12 05:51:06;;;;;;;11.23;5.93;;;;;;;18.73;53.88;100701.72;3379968;29;20097;-70
2021/05/12 05:53:19;;;;;;;10.40;6.63;;;;;;;18.78;53.94;100697.56;3326414;29;20141;-69
2021/05/12 05:55:18;;;;;;;10.13;6.70;;;;;;;18.81;53.88;100689.84;3377266;29;20056;-70
2021/05/12 05:57:18;;;;;;;9.07;7.28;;;;;;;18.83;54.20;100697.72;3351985;29;20049;-70
2021/05/12 05:59:17;;;;;;;16.33;8.18;;;;;;;18.82;54.24;100694.19;3370387;29;20040;-69
2021/05/12 06:01:16;;;;;;;16.75;8.07;;;;;;;18.82;54.10;100694.19;3379977;29;20037;-70
2021/05/12 06:03:00;;;;;;;14.32;7.82;;;;;;;18.84;54.10;100693.97;3386611;29;20051;-70
2021/05/12 06:05:01;;;;;;;20.70;9.18;;;;;;;18.83;54.16;100686.91;3382341;29;20135;-69
2021/05/12 06:07:09;;;;;;;19.00;9.13;;;;;;;18.83;54.43;100692.31;3371785;29;20504;-69
2021/05/12 06:09:08;;;;;;;23.25;10.05;;;;;;;18.80;54.43;100695.47;3380239;29;20115;-71
2021/05/12 06:11:09;;;;;;;13.77;10.10;;;;;;;18.78;54.40;100684.06;3383722;29;20423;-71
2021/05/12 06:13:08;;;;;;;16.35;9.23;;;;;;;18.75;54.72;100685.34;3382658;29;20059;-71
2021/05/12 06:15:07;;;;;;;19.50;10.00;;;;;;;18.73;54.52;100684.69;3380095;29;20507;-70
2021/05/12 06:17:07;;;;;;;24.05;10.95;;;;;;;18.70;54.80;100687.84;3382618;29;20067;-70
2021/05/12 06:19:06;;;;;;;16.67;9.93;;;;;;;18.68;55.21;100685.38;3383001;29;20570;-70
2021/05/12 06:21:06;;;;;;;15.15;9.30;;;;;;;18.68;55.04;100692.66;3389952;29;20467;-70
2021/05/12 06:23:06;;;;;;;16.73;9.43;;;;;;;18.65;55.08;100696.63;3389527;29;20519;-69
2021/05/12 06:25:05;;;;;;;14.43;8.77;;;;;;;18.64;55.00;100697.69;3383742;29;20569;-69
2021/05/12 06:27:05;;;;;;;17.52;8.75;;;;;;;18.64;54.97;100702.22;3371349;29;20044;-69
2021/05/12 06:29:05;;;;;;;15.95;9.45;;;;;;;18.63;55.17;100697.88;3384807;29;20107;-70
2021/05/12 06:31:04;;;;;;;20.90;9.85;;;;;;;18.63;55.10;100693.31;3378433;29;20080;-68
2021/05/12 06:33:07;;;;;;;12.88;8.75;;;;;;;18.64;55.04;100697.69;3380049;29;20511;-68
2021/05/12 06:35:07;;;;;;;19.55;10.77;;;;;;;18.64;55.04;100691.44;3386899;29;20800;-70
2021/05/12 06:37:06;;;;;;;17.08;9.77;;;;;;;18.63;55.17;100689.78;3384968;29;20086;-70
2021/05/12 06:39:06;;;;;;;19.35;10.65;;;;;;;18.65;54.98;100685.81;3383186;29;20049;-69
2021/05/12 06:40:47;;;;;;;19.40;10.43;;;;;;;18.66;55.29;100683.94;3384132;29;20066;-69
2021/05/12 06:42:28;;;;;;;16.45;10.70;;;;;;;18.67;55.19;100689.13;3382161;29;20418;-69
2021/05/12 06:44:08;;;;;;;20.35;10.05;;;;;;;18.68;55.26;100690.75;3382022;29;20048;-71
2021/05/12 06:45:49;;;;;;;15.90;10.15;;;;;;;18.68;55.30;100679.97;3383385;29;20130;-70
2021/05/12 06:47:30;;;;;;;20.67;10.55;;;;;;;18.70;55.08;100685.16;3368073;29;20032;-71
2021/05/12 06:49:11;;;;;;;16.77;10.60;;;;;;;18.71;55.29;100681.38;3379362;29;20053;-71
2021/05/12 06:50:57;;;;;;;22.75;11.07;;;;;;;18.70;55.00;100685.97;3379020;29;20519;-69
2021/05/12 06:52:37;;;;;;;23.08;12.57;;;;;;;18.71;55.31;100684.09;3382286;29;20057;-70
2021/05/12 06:54:18;;;;;;;20.02;11.10;;;;;;;18.69;55.46;100683.47;3388266;29;20047;-69
2021/05/12 06:56:00;;;;;;;18.45;10.65;;;;;;;18.69;55.33;100683.47;3374295;29;20166;-70
2021/05/12 06:57:40;;;;;;;16.95;12.10;;;;;;;18.70;55.30;100685.97;3396977;29;20041;-70
2021/05/12 06:59:21;;;;;;;20.45;11.38;;;;;;;18.68;55.52;100682.66;3387649;29;20075;-69
2021/05/12 07:01:02;;;;;;;23.23;11.90;;;;;;;18.67;55.50;100678.31;3379928;29;20535;-69
2021/05/12 07:02:43;;;;;;;17.70;10.40;;;;;;;18.68;55.40;100685.38;3387495;29;20479;-69
2021/05/12 07:04:24;;;;;;;23.05;12.93;;;;;;;18.69;55.41;100670.81;3381234;29;20045;-70
2021/05/12 07:06:05;;;;;;;21.83;12.60;;;;;;;18.71;55.21;100673.28;3377514;29;20055;-69
2021/05/12 07:07:45;;;;;;;18.73;11.65;;;;;;;18.73;55.13;100657.69;3382951;29;20044;-70
2021/05/12 07:09:26;;;;;;;21.15;11.65;;;;;;;18.77;55.18;100653.53;3384790;29;20044;-69
2021/05/12 07:11:08;;;;;;;19.00;11.68;;;;;;;18.79;55.16;100646.00;3383398;29;20052;-70
2021/05/12 07:12:49;;;;;;;17.50;11.10;;;;;;;18.83;55.16;100639.13;3382574;29;20068;-70
2021/05/12 07:14:32;;;;;;;26.42;12.10;;;;;;;18.86;54.76;100635.97;3384207;29;20557;-69
2021/05/12 07:16:13;;;;;;;16.08;12.57;;;;;;;18.91;54.97;100635.28;3378567;29;20179;-69
2021/05/12 07:17:54;;;;;;;26.17;11.73;;;;;;;18.95;55.01;100621.09;3386362;29;20089;-69
2021/05/12 07:19:35;;;;;;;21.40;12.90;;;;;;;18.99;54.78;100621.47;3382041;29;20522;-69
2021/05/12 07:21:15;;;;;;;33.35;15.93;;;;;;;19.03;54.83;100619.97;3381958;29;20076;-69
2021/05/12 07:23:11;;;;;;;25.95;16.48;;;;;;;19.10;54.86;100618.03;3383212;29;20045;-70
2021/05/12 07:24:52;;;;;;;37.63;15.35;;;;;;;19.11;54.58;100614.25;3367003;29;20118;-70
2021/05/12 07:26:33;;;;;;;27.08;14.85;;;;;;;19.15;54.72;100618.16;3380643;29;20072;-71
2021/05/12 07:28:14;;;;;;;22.65;14.05;;;;;;;19.18;54.88;100612.28;3383774;29;20040;-70
2021/05/12 07:29:55;;;;;;;26.25;14.10;;;;;;;19.20;54.62;100608.53;3370334;29;20049;-71
2021/05/12 07:31:36;;;;;;;22.45;12.77;;;;;;;19.23;54.51;100605.34;3392009;29;20095;-70
2021/05/12 07:33:17;;;;;;;22.40;12.35;;;;;;;19.25;54.57;100598.66;3381298;29;20119;-70
2021/05/12 07:34:57;;;;;;;19.40;11.80;;;;;;;19.29;54.37;100599.88;3383426;29;20044;-70
2021/05/12 07:36:39;;;;;;;23.13;12.90;;;;;;;19.33;54.20;100594.81;3384211;29;20040;-70
2021/05/12 07:38:20;;;;;;;25.10;13.00;;;;;;;19.35;54.22;100600.81;3370152;29;20059;-71
2021/05/12 07:40:00;;;;;;;21.90;12.40;;;;;;;19.36;53.87;100592.50;3379092;29;20063;-70
2021/05/12 07:41:43;;;;;;;24.90;11.77;;;;;;;19.38;54.24;100589.53;3388066;29;20486;-69
2021/05/12 07:43:24;;;;;;;22.20;13.02;;;;;;;19.40;53.93;100584.75;3381274;29;20032;-69
2021/05/12 07:45:05;;;;;;;22.63;12.80;;;;;;;19.44;54.20;100593.19;3382086;29;20040;-70
2021/05/12 07:46:46;;;;;;;27.40;13.20;;;;;;;19.46;53.92;100583.81;3370009;29;20045;-69
2021/05/12 07:48:27;;;;;;;22.75;14.35;;;;;;;19.47;53.82;100582.75;3380360;29;20067;-70
2021/05/12 07:50:10;;;;;;;23.10;12.40;;;;;;;19.50;54.21;100585.00;3381331;29;20044;-70
2021/05/12 07:51:51;;;;;;;26.75;13.70;;;;;;;19.52;54.13;100574.78;3389019;29;20060;-69
2021/05/12 07:53:32;;;;;;;26.70;14.57;;;;;;;19.58;53.73;100576.56;3380364;29;20086;-69
2021/05/12 07:55:13;;;;;;;21.42;13.13;;;;;;;19.61;53.56;100573.38;3380496;29;20079;-70
2021/05/12 07:56:53;;;;;;;19.77;11.68;;;;;;;19.68;53.60;100567.09;3382883;29;20040;-69
2021/05/12 07:58:35;;;;;;;21.67;12.40;;;;;;;19.72;53.38;100563.69;3381287;29;20040;-70